Time;durP1;ratioP1;P1;durP2;ratioP2;P2;SDS_P1;SDS_P2;PMS_P1;PMS_P2;Temp;Humidity;BMP_temperature;BMP_pressure;BME280_temperature;BME280_humidity;BME280_pressure;Samples;Min_cycle;Max_cycle;Signal;HPM_P1;HPM_P2
2023/01/23 00:01:52;;;;;;;71.32;31.63;;;2.50;99.90;;;;;;5053362;28;20043;-58
2023/01/23 00:04:17;;;;;;;62.55;29.38;;;2.50;99.90;;;;;;5057225;28;20060;-59
2023/01/23 00:06:43;;;;;;;69.97;31.45;;;2.50;99.90;;;;;;5055550;28;20055;-57
2023/01/23 00:09:09;;;;;;;62.20;32.22;;;2.70;99.90;;;;;;5059506;28;20039;-60
2023/01/23 00:11:34;;;;;;;62.83;30.52;;;2.60;99.90;;;;;;5058191;28;20126;-57
2023/01/23 00:14:01;;;;;;;72.40;31.98;;;2.60;99.90;;;;;;5052675;28;20102;-55
2023/01/23 00:16:29;;;;;;;65.90;33.05;;;2.50;99.90;;;;;;5054568;28;20055;-61
2023/01/23 00:18:55;;;;;;;70.13;31.50;;;2.60;99.90;;;;;;5053124;28;20043;-58
2023/01/23 00:21:24;;;;;;;66.70;31.92;;;2.60;99.90;;;;;;5055218;28;20048;-60
2023/01/23 00:23:52;;;;;;;70.70;31.05;;;2.90;99.90;;;;;;5055139;28;20492;-59
2023/01/23 00:26:20;;;;;;;66.28;30.40;;;2.80;99.90;;;;;;5056739;28;20886;-60
2023/01/23 00:28:47;;;;;;;72.82;32.42;;;2.80;99.90;;;;;;5056365;28;20040;-61
2023/01/23 00:31:19;;;;;;;65.70;32.00;;;2.80;99.90;;;;;;5054401;28;20036;-58
2023/01/23 00:33:45;;;;;;;66.22;31.08;;;2.70;99.90;;;;;;5053735;28;20033;-57
2023/01/23 00:36:12;;;;;;;65.13;30.38;;;2.70;99.90;;;;;;5050790;28;20111;-59
2023/01/23 00:38:39;;;;;;;63.75;32.13;;;2.60;99.90;;;;;;5059947;28;20475;-57
2023/01/23 00:41:04;;;;;;;63.97;30.77;;;2.70;99.90;;;;;;5052731;28;20067;-56
2023/01/23 00:43:30;;;;;;;59.15;28.83;;;2.70;99.90;;;;;;5052004;28;20377;-57
2023/01/23 00:45:56;;;;;;;68.57;32.55;;;2.80;99.90;;;;;;5057624;28;20090;-60
2023/01/23 00:48:22;;;;;;;57.13;30.08;;;3.00;99.90;;;;;;5053347;28;20099;-60
2023/01/23 00:50:48;;;;;;;63.40;30.15;;;2.90;99.90;;;;;;5055264;28;20037;-60
2023/01/23 00:53:13;;;;;;;65.57;30.13;;;2.90;99.90;;;;;;5050733;28;20083;-58
2023/01/23 00:55:40;;;;;;;60.95;29.15;;;2.70;99.90;;;;;;5054820;28;20036;-61
2023/01/23 00:58:07;;;;;;;60.83;31.83;;;2.70;99.90;;;;;;5048084;28;20040;-60
2023/01/23 01:00:32;;;;;;;60.13;29.70;;;2.90;99.90;;;;;;5056744;28;20115;-60
2023/01/23 01:02:58;;;;;;;59.90;28.63;;;2.90;99.90;;;;;;5056280;28;20131;-57
2023/01/23 01:05:24;;;;;;;63.88;29.08;;;3.00;99.90;;;;;;5050872;28;20032;-60
2023/01/23 01:07:49;;;;;;;56.65;28.90;;;2.90;99.90;;;;;;5054065;28;20126;-55
2023/01/23 01:10:15;;;;;;;59.85;29.23;;;2.90;99.90;;;;;;5049512;28;20450;-56
2023/01/23 01:12:40;;;;;;;53.85;28.85;;;2.90;99.90;;;;;;5057557;28;20037;-60
2023/01/23 01:15:07;;;;;;;53.75;28.38;;;3.00;99.90;;;;;;5055881;28;20132;-61
2023/01/23 01:17:34;;;;;;;54.25;28.42;;;3.00;99.90;;;;;;5053364;28;20032;-61
2023/01/23 01:19:59;;;;;;;51.40;26.05;;;3.10;99.90;;;;;;5051871;28;20044;-55
2023/01/23 01:22:25;;;;;;;52.83;27.92;;;3.00;99.90;;;;;;5055253;28;20033;-58
2023/01/23 01:24:50;;;;;;;54.08;26.83;;;3.00;99.90;;;;;;5050589;28;20822;-59
2023/01/23 01:27:16;;;;;;;51.05;26.33;;;3.00;99.90;;;;;;5052557;28;20580;-58
2023/01/23 01:29:41;;;;;;;46.05;26.50;;;2.90;99.90;;;;;;5056080;28;20391;-61
2023/01/23 01:32:07;;;;;;;50.33;26.85;;;2.80;99.90;;;;;;5052376;28;20127;-59
2023/01/23 01:34:32;;;;;;;48.28;23.90;;;2.80;99.90;;;;;;5052546;28;20051;-55
2023/01/23 01:36:59;;;;;;;49.95;25.15;;;2.90;99.90;;;;;;5054783;28;20040;-60
2023/01/23 01:39:24;;;;;;;46.17;24.83;;;2.80;99.90;;;;;;5055211;28;20032;-60
2023/01/23 01:41:50;;;;;;;43.85;23.83;;;2.80;99.90;;;;;;5052308;28;20827;-56
2023/01/23 01:44:20;;;;;;;49.20;23.88;;;2.80;99.90;;;;;;5051417;28;20171;-61
2023/01/23 01:46:47;;;;;;;43.00;22.90;;;2.90;99.90;;;;;;5054166;28;20037;-56
2023/01/23 01:49:29;;;;;;;46.38;24.30;;;2.80;99.90;;;;;;5050468;28;20036;-57
2023/01/23 01:52:08;;;;;;;45.80;25.88;;;3.00;99.90;;;;;;5051373;28;20028;-60
2023/01/23 01:54:52;;;;;;;37.90;22.95;;;3.00;99.90;;;;;;5052844;28;20382;-61
2023/01/23 01:57:38;;;;;;;41.88;22.08;;;3.00;99.90;;;;;;5051311;28;20460;-59
2023/01/23 02:00:14;;;;;;;39.83;23.10;;;3.10;99.90;;;;;;5052835;28;20151;-60
2023/01/23 02:02:54;;;;;;;40.03;22.75;;;3.10;99.90;;;;;;5054363;28;20075;-60
2023/01/23 02:05:23;;;;;;;43.25;22.67;;;2.90;99.90;;;;;;5052173;28;20392;-59
2023/01/23 02:07:54;;;;;;;39.75;23.08;;;3.00;99.90;;;;;;5050878;28;20098;-57
2023/01/23 02:10:21;;;;;;;36.55;21.13;;;2.90;99.90;;;;;;5050907;28;20124;-60
2023/01/23 02:12:49;;;;;;;38.13;21.15;;;2.90;99.90;;;;;;5052960;28;20127;-57
2023/01/23 02:15:16;;;;;;;35.35;21.15;;;2.90;99.90;;;;;;5055828;28;20044;-60
2023/01/23 02:17:44;;;;;;;38.65;22.35;;;2.90;99.90;;;;;;5056025;28;20037;-60
2023/01/23 02:20:15;;;;;;;37.42;22.55;;;3.00;99.90;;;;;;5052630;28;20035;-56
2023/01/23 02:23:00;;;;;;;34.38;21.98;;;2.90;99.90;;;;;;5050870;28;20531;-59
2023/01/23 02:25:44;;;;;;;37.35;19.92;;;2.90;99.90;;;;;;5054515;28;20036;-59
2023/01/23 02:28:12;;;;;;;35.85;20.73;;;3.00;99.90;;;;;;5052172;28;20051;-56
2023/01/23 02:30:38;;;;;;;36.35;21.30;;;3.20;99.90;;;;;;5055059;28;20031;-61
2023/01/23 02:33:30;;;;;;;35.92;20.25;;;3.40;99.90;;;;;;5053420;28;20550;-60
2023/01/23 02:36:00;;;;;;;32.15;19.25;;;3.30;99.90;;;;;;5038695;28;20033;-62
2023/01/23 02:38:31;;;;;;;37.00;20.60;;;3.70;99.90;;;;;;5055183;28;20036;-61
2023/01/23 02:41:01;;;;;;;31.60;18.35;;;3.50;99.90;;;;;;5052003;28;20484;-56
2023/01/23 02:43:33;;;;;;;32.75;19.92;;;3.20;99.90;;;;;;5055679;28;20419;-58
2023/01/23 02:46:09;;;;;;;33.13;20.48;;;3.20;99.90;;;;;;5050759;28;20026;-60
2023/01/23 02:48:35;;;;;;;32.20;19.13;;;3.30;99.90;;;;;;5051474;28;20147;-60
2023/01/23 02:51:01;;;;;;;31.33;18.73;;;3.40;99.90;;;;;;5052469;28;20032;-61
2023/01/23 02:53:27;;;;;;;34.03;20.13;;;3.30;99.90;;;;;;5053277;28;20044;-58
2023/01/23 02:55:52;;;;;;;33.67;20.30;;;3.20;99.90;;;;;;5053182;28;20119;-59
2023/01/23 03:01:03;;;;;;;31.73;20.67;;;3.20;99.90;;;;;;5058119;28;20090;-60
2023/01/23 03:03:29;;;;;;;32.85;20.60;;;3.20;99.90;;;;;;5056836;28;20900;-61
2023/01/23 03:05:56;;;;;;;31.15;19.48;;;3.30;99.90;;;;;;5058472;28;20110;-61
2023/01/23 03:08:22;;;;;;;29.40;19.13;;;3.30;99.90;;;;;;5049292;28;20052;-59
2023/01/23 03:10:48;;;;;;;32.10;19.08;;;3.20;99.90;;;;;;5055809;28;20028;-59
2023/01/23 03:13:13;;;;;;;28.50;18.30;;;3.00;99.90;;;;;;5055164;28;20090;-60
2023/01/23 03:15:41;;;;;;;32.30;20.00;;;2.90;99.90;;;;;;5058508;28;20047;-61
2023/01/23 03:18:07;;;;;;;30.85;19.02;;;3.00;99.90;;;;;;5059022;28;20069;-59
2023/01/23 03:20:40;;;;;;;35.47;20.20;;;3.00;99.90;;;;;;5058581;28;20540;-60
2023/01/23 03:23:06;;;;;;;32.75;20.80;;;3.10;99.90;;;;;;5057808;28;20049;-57
2023/01/23 03:25:32;;;;;;;35.47;21.08;;;3.00;99.90;;;;;;5052536;28;20047;-60
2023/01/23 03:27:57;;;;;;;33.17;20.17;;;3.00;99.90;;;;;;5058166;28;20059;-59
2023/01/23 03:30:24;;;;;;;32.20;19.83;;;3.10;99.90;;;;;;5055599;28;20111;-61
2023/01/23 03:32:51;;;;;;;31.33;19.73;;;3.00;99.90;;;;;;5053571;28;20067;-59
2023/01/23 03:35:19;;;;;;;32.33;19.85;;;2.80;99.90;;;;;;5055602;28;20033;-59
2023/01/23 03:37:48;;;;;;;32.72;20.25;;;2.80;99.90;;;;;;5055638;28;20507;-58
2023/01/23 03:43:07;;;;;;;28.73;16.50;;;2.80;99.90;;;;;;5055153;28;20052;-60
2023/01/23 03:45:32;;;;;;;34.60;20.98;;;2.90;99.90;;;;;;5055663;28;20033;-58
2023/01/23 03:47:58;;;;;;;36.15;20.90;;;3.10;99.90;;;;;;5055519;28;20028;-56
2023/01/23 03:50:24;;;;;;;33.38;20.98;;;2.90;99.90;;;;;;5052817;28;20035;-60
2023/01/23 03:52:50;;;;;;;32.42;19.77;;;2.70;99.90;;;;;;5061326;28;20860;-61
2023/01/23 03:55:15;;;;;;;33.00;20.85;;;2.60;99.90;;;;;;5059530;28;20033;-60
2023/01/23 03:57:41;;;;;;;35.30;20.95;;;2.60;99.90;;;;;;5056698;28;20480;-60
2023/01/23 04:00:07;;;;;;;34.28;19.85;;;2.60;99.90;;;;;;5055698;28;20037;-56
2023/01/23 04:02:33;;;;;;;32.97;20.55;;;2.70;99.90;;;;;;5056717;28;20037;-57
2023/01/23 04:04:58;;;;;;;34.08;19.85;;;2.70;99.90;;;;;;5056517;28;20492;-60
2023/01/23 04:07:24;;;;;;;31.90;19.65;;;2.70;99.90;;;;;;5057999;28;20173;-60
2023/01/23 04:09:49;;;;;;;32.13;19.85;;;2.90;99.90;;;;;;5054564;28;20118;-59
2023/01/23 04:12:15;;;;;;;36.60;21.27;;;2.80;99.90;;;;;;5055365;28;20078;-60
2023/01/23 04:14:41;;;;;;;34.03;20.88;;;3.00;99.90;;;;;;5051842;28;20032;-57
2023/01/23 04:17:07;;;;;;;33.33;20.33;;;3.00;99.90;;;;;;5055219;28;20044;-60
2023/01/23 04:19:33;;;;;;;28.98;19.17;;;3.10;99.90;;;;;;5051345;28;20058;-61
2023/01/23 04:21:59;;;;;;;32.15;19.83;;;3.30;99.90;;;;;;5058314;28;20043;-61
2023/01/23 04:24:25;;;;;;;34.28;20.23;;;3.30;99.90;;;;;;5054485;28;20044;-57
2023/01/23 04:26:50;;;;;;;34.17;21.25;;;3.30;99.90;;;;;;5054368;28;20156;-60
2023/01/23 04:29:16;;;;;;;34.13;21.20;;;3.40;99.90;;;;;;5053900;28;20067;-57
2023/01/23 04:31:42;;;;;;;33.22;20.55;;;3.50;99.90;;;;;;5052434;28;20032;-58
2023/01/23 04:34:08;;;;;;;41.33;22.77;;;3.50;99.90;;;;;;5053590;28;20044;-60
2023/01/23 04:36:33;;;;;;;40.85;21.83;;;3.60;99.90;;;;;;5053926;28;20543;-60
2023/01/23 04:38:59;;;;;;;36.95;21.15;;;3.50;99.90;;;;;;5059636;28;20028;-59
2023/01/23 04:41:27;;;;;;;33.78;20.58;;;3.50;99.90;;;;;;5052271;28;20239;-60
2023/01/23 04:43:53;;;;;;;34.10;21.45;;;3.60;99.90;;;;;;5055154;28;20041;-60
2023/01/23 04:46:19;;;;;;;35.60;21.70;;;3.50;99.90;;;;;;5056445;28;20078;-57
2023/01/23 04:48:44;;;;;;;35.53;20.75;;;3.40;99.90;;;;;;5053813;28;20044;-61
2023/01/23 04:51:10;;;;;;;35.03;19.98;;;3.30;99.90;;;;;;5053515;28;20444;-61
2023/01/23 04:53:36;;;;;;;36.70;21.70;;;3.40;99.90;;;;;;5051126;28;20127;-60
2023/01/23 04:56:02;;;;;;;38.15;21.90;;;3.50;99.90;;;;;;5052459;28;20055;-54
2023/01/23 04:58:28;;;;;;;32.53;20.45;;;3.40;99.90;;;;;;5052262;28;20040;-58
2023/01/23 05:00:53;;;;;;;39.78;22.45;;;3.20;99.90;;;;;;5053707;28;20032;-60
2023/01/23 05:03:19;;;;;;;36.15;20.58;;;3.20;99.90;;;;;;5055107;28;20037;-60
2023/01/23 05:05:46;;;;;;;40.03;21.00;;;3.10;99.90;;;;;;5056468;28;20147;-60
2023/01/23 05:08:12;;;;;;;39.95;20.60;;;3.00;99.90;;;;;;5053276;28;20083;-60
2023/01/23 05:10:38;;;;;;;38.30;21.20;;;3.10;99.90;;;;;;5052179;28;20029;-60
2023/01/23 05:13:05;;;;;;;37.38;21.48;;;3.10;99.90;;;;;;5053223;28;20036;-57
2023/01/23 05:15:31;;;;;;;37.95;21.15;;;3.00;99.90;;;;;;5053536;28;20051;-58
2023/01/23 05:17:56;;;;;;;35.47;21.13;;;3.00;99.90;;;;;;5051689;28;20487;-58
2023/01/23 05:20:22;;;;;;;34.47;20.73;;;3.10;99.90;;;;;;5054017;28;20036;-61
2023/01/23 05:22:51;;;;;;;35.47;21.00;;;2.90;99.90;;;;;;5056747;28;20244;-60
2023/01/23 05:25:23;;;;;;;33.83;20.77;;;2.90;99.90;;;;;;5059322;28;20050;-58
2023/01/23 05:27:49;;;;;;;34.03;20.95;;;3.10;99.90;;;;;;5057529;28;20033;-57
2023/01/23 05:30:16;;;;;;;34.25;21.85;;;3.10;99.90;;;;;;5056546;28;21712;-57
2023/01/23 05:32:42;;;;;;;35.38;21.58;;;3.10;99.90;;;;;;5055217;28;20508;-61
2023/01/23 05:35:08;;;;;;;34.30;20.80;;;3.00;99.90;;;;;;5051013;28;20048;-58
2023/01/23 05:37:34;;;;;;;35.10;21.20;;;3.10;99.90;;;;;;5054583;28;20036;-58
2023/01/23 05:39:59;;;;;;;34.10;20.52;;;3.10;99.90;;;;;;5051880;28;20044;-58
2023/01/23 05:42:25;;;;;;;34.80;21.35;;;3.10;99.90;;;;;;5052799;28;20059;-60
2023/01/23 05:44:51;;;;;;;36.50;21.75;;;3.00;99.90;;;;;;5053828;28;20055;-61
2023/01/23 05:47:16;;;;;;;35.45;21.13;;;3.00;99.90;;;;;;5054022;28;20506;-57
2023/01/23 05:49:42;;;;;;;35.33;21.52;;;3.00;99.90;;;;;;5052152;28;20187;-59
2023/01/23 05:52:07;;;;;;;34.50;21.85;;;3.10;99.90;;;;;;5051968;28;20044;-60
2023/01/23 05:54:33;;;;;;;37.97;23.10;;;3.30;99.90;;;;;;5056921;28;20051;-60
2023/01/23 05:56:58;;;;;;;37.47;21.98;;;3.40;99.90;;;;;;5055161;28;20123;-59
2023/01/23 05:59:24;;;;;;;34.88;21.20;;;3.20;99.90;;;;;;5052574;28;20121;-61
2023/01/23 06:01:49;;;;;;;35.10;21.27;;;3.30;99.90;;;;;;5056165;28;20041;-56
2023/01/23 06:04:15;;;;;;;38.85;21.92;;;3.30;99.90;;;;;;5053716;28;20032;-59
2023/01/23 06:06:42;;;;;;;37.42;23.15;;;3.20;99.90;;;;;;5056135;28;20560;-60
2023/01/23 06:09:08;;;;;;;36.33;21.52;;;3.30;99.90;;;;;;5054423;28;20546;-60
2023/01/23 06:11:33;;;;;;;37.00;21.67;;;3.40;99.90;;;;;;5049908;28;20067;-56
2023/01/23 06:13:59;;;;;;;35.67;20.80;;;3.40;99.90;;;;;;5055871;28;20064;-60
2023/01/23 06:16:25;;;;;;;34.63;20.50;;;3.40;99.90;;;;;;5053698;28;20040;-58
2023/01/23 06:18:50;;;;;;;33.72;19.73;;;3.40;99.90;;;;;;5053167;28;20213;-59
2023/01/23 06:21:17;;;;;;;37.53;22.30;;;3.30;99.90;;;;;;5052850;28;20033;-60
2023/01/23 06:23:43;;;;;;;38.50;22.08;;;3.20;99.90;;;;;;5049627;28;20408;-61
2023/01/23 06:26:09;;;;;;;36.55;21.65;;;3.30;99.90;;;;;;5053754;28;20032;-60
2023/01/23 06:28:34;;;;;;;42.42;24.35;;;3.40;99.90;;;;;;5057355;28;20450;-57
2023/01/23 06:31:02;;;;;;;42.92;24.30;;;3.40;99.90;;;;;;5045334;28;20495;-58
2023/01/23 06:33:29;;;;;;;42.53;23.85;;;3.40;99.90;;;;;;5053834;28;20048;-59
2023/01/23 06:35:59;;;;;;;42.25;22.23;;;3.40;99.90;;;;;;5057063;28;20677;-56
2023/01/23 06:38:25;;;;;;;41.55;23.45;;;3.30;99.90;;;;;;5057914;28;20520;-60
2023/01/23 06:40:51;;;;;;;45.35;24.02;;;3.40;99.90;;;;;;5058352;28;20519;-59
2023/01/23 06:43:16;;;;;;;41.17;24.27;;;3.30;99.90;;;;;;5053621;28;20045;-61
2023/01/23 06:45:46;;;;;;;46.15;25.02;;;3.20;99.90;;;;;;5062221;28;20437;-61
2023/01/23 06:48:12;;;;;;;44.42;25.83;;;3.40;99.90;;;;;;5061304;28;20037;-55
2023/01/23 06:50:38;;;;;;;45.80;24.15;;;3.40;99.90;;;;;;5057295;28;20556;-60
2023/01/23 06:53:04;;;;;;;40.20;21.90;;;3.30;99.90;;;;;;5056384;28;20121;-60
2023/01/23 06:55:31;;;;;;;48.78;27.35;;;3.10;99.90;;;;;;5055563;28;20127;-60
2023/01/23 06:57:56;;;;;;;49.80;27.65;;;3.20;99.90;;;;;;5059400;28;20422;-61
2023/01/23 07:00:22;;;;;;;48.38;26.88;;;3.40;99.90;;;;;;5053268;28;20024;-60
2023/01/23 07:02:48;;;;;;;50.50;26.40;;;3.30;99.90;;;;;;5052441;28;20040;-60
2023/01/23 07:05:14;;;;;;;45.22;25.63;;;3.20;99.90;;;;;;5054372;28;20086;-57
2023/01/23 07:07:39;;;;;;;48.33;26.45;;;3.20;99.90;;;;;;5055893;28;20120;-59
2023/01/23 07:10:06;;;;;;;45.30;25.48;;;3.20;99.90;;;;;;5053856;28;20578;-58
2023/01/23 07:12:32;;;;;;;48.38;26.83;;;3.10;99.90;;;;;;5055038;28;20064;-61
2023/01/23 07:14:57;;;;;;;47.72;27.00;;;3.20;99.90;;;;;;5055508;28;20065;-59
2023/01/23 07:17:23;;;;;;;45.97;23.33;;;3.20;99.90;;;;;;5054669;28;20446;-60
2023/01/23 07:19:49;;;;;;;49.47;27.27;;;3.20;99.90;;;;;;5057406;28;20490;-59
2023/01/23 07:22:19;;;;;;;44.88;24.98;;;3.40;99.90;;;;;;5055456;28;20041;-58
2023/01/23 07:24:45;;;;;;;50.95;27.77;;;3.40;99.90;;;;;;5054310;28;20090;-61
2023/01/23 07:27:10;;;;;;;49.63;27.45;;;3.50;99.90;;;;;;5054657;28;20037;-60
2023/01/23 07:29:36;;;;;;;48.17;25.52;;;3.50;99.90;;;;;;5059598;28;20076;-60
2023/01/23 07:32:01;;;;;;;49.38;26.27;;;3.40;99.90;;;;;;5059193;28;20033;-59
2023/01/23 07:34:27;;;;;;;49.08;26.90;;;3.30;99.90;;;;;;5062098;28;20500;-61
2023/01/23 07:36:52;;;;;;;52.25;27.30;;;3.30;99.90;;;;;;5060738;28;20066;-61
2023/01/23 07:39:18;;;;;;;49.90;26.73;;;3.40;99.90;;;;;;5059838;28;20037;-61
2023/01/23 07:41:44;;;;;;;50.17;26.60;;;3.40;99.90;;;;;;5060045;28;20043;-54
2023/01/23 07:44:16;;;;;;;47.97;26.83;;;3.40;99.90;;;;;;5060118;28;20033;-60
2023/01/23 07:46:42;;;;;;;38.37;20.83;;;3.40;99.90;;;;;;5056711;28;20527;-61
2023/01/23 07:49:08;;;;;;;49.17;27.83;;;3.40;99.90;;;;;;5061178;28;20287;-59
2023/01/23 07:51:34;;;;;;;46.70;25.33;;;3.50;99.90;;;;;;5053455;28;20124;-61
2023/01/23 07:53:59;;;;;;;46.40;24.98;;;3.60;99.90;;;;;;5064578;28;20501;-60
2023/01/23 07:56:25;;;;;;;46.08;25.17;;;3.50;99.90;;;;;;5054500;28;20041;-60
2023/01/23 07:58:51;;;;;;;43.55;23.92;;;3.50;99.90;;;;;;5059355;28;20033;-58
2023/01/23 08:01:18;;;;;;;52.28;24.95;;;3.50;99.90;;;;;;5056401;28;20060;-57
2023/01/23 08:03:44;;;;;;;42.47;22.10;;;3.50;99.90;;;;;;5057843;28;20152;-60
2023/01/23 08:06:10;;;;;;;45.58;24.23;;;3.50;99.90;;;;;;5061413;28;20032;-60
2023/01/23 08:08:35;;;;;;;44.08;24.17;;;3.60;99.90;;;;;;5054367;28;20044;-57
2023/01/23 08:11:06;;;;;;;45.97;24.85;;;3.50;99.90;;;;;;5063032;28;20062;-60
2023/01/23 08:13:32;;;;;;;46.40;24.23;;;3.70;99.90;;;;;;5054069;28;20045;-61
2023/01/23 08:15:58;;;;;;;43.80;23.83;;;3.70;99.90;;;;;;5054212;28;20090;-59
2023/01/23 08:18:24;;;;;;;45.03;23.40;;;3.80;99.90;;;;;;5058134;28;20037;-58
2023/01/23 08:20:54;;;;;;;40.45;22.45;;;3.50;99.90;;;;;;5053909;28;20065;-59
2023/01/23 08:23:20;;;;;;;45.00;22.50;;;3.30;99.90;;;;;;5058110;28;20063;-59
2023/01/23 08:25:45;;;;;;;42.97;23.33;;;3.20;99.90;;;;;;5048531;28;20048;-61
2023/01/23 08:28:11;;;;;;;45.65;24.38;;;3.30;99.90;;;;;;5050868;28;20041;-59
2023/01/23 08:30:36;;;;;;;44.35;23.70;;;3.40;99.90;;;;;;5056876;28;20093;-57
2023/01/23 08:33:03;;;;;;;44.47;24.05;;;3.50;99.90;;;;;;5054284;28;20041;-60
2023/01/23 08:35:29;;;;;;;47.22;24.17;;;3.70;99.90;;;;;;5049479;28;20500;-59
2023/01/23 08:37:54;;;;;;;43.20;23.88;;;3.90;99.90;;;;;;5055743;28;20032;-58
2023/01/23 08:40:20;;;;;;;42.85;23.73;;;3.90;99.90;;;;;;5059076;28;20047;-61
2023/01/23 08:42:45;;;;;;;45.70;23.83;;;3.80;99.90;;;;;;5061602;28;20446;-61
2023/01/23 08:45:11;;;;;;;42.22;23.02;;;3.80;99.90;;;;;;5048484;28;20384;-60
2023/01/23 08:47:37;;;;;;;40.85;21.98;;;3.60;99.90;;;;;;5056589;28;20071;-59
2023/01/23 08:50:04;;;;;;;36.95;22.38;;;3.50;99.90;;;;;;5054751;28;20040;-59
2023/01/23 08:52:30;;;;;;;36.15;21.20;;;3.70;99.90;;;;;;5051368;28;20037;-58
2023/01/23 08:54:55;;;;;;;38.42;21.83;;;3.70;99.90;;;;;;5049341;28;20047;-62
2023/01/23 08:57:21;;;;;;;39.10;21.80;;;3.70;99.90;;;;;;5057418;28;20032;-63
2023/01/23 08:59:46;;;;;;;41.13;22.00;;;3.70;99.90;;;;;;5060525;28;20032;-62
2023/01/23 09:02:12;;;;;;;42.00;22.55;;;4.00;99.90;;;;;;5058586;28;20032;-59
2023/01/23 09:04:37;;;;;;;41.38;22.08;;;4.00;99.90;;;;;;5055163;28;20032;-62
2023/01/23 09:07:03;;;;;;;42.60;21.63;;;4.10;99.90;;;;;;5058556;28;20514;-62
2023/01/23 09:09:29;;;;;;;42.00;22.27;;;4.00;99.90;;;;;;5062202;28;20040;-61
2023/01/23 09:11:54;;;;;;;40.85;22.17;;;4.00;99.90;;;;;;5060397;28;20123;-62
2023/01/23 09:14:20;;;;;;;41.75;21.88;;;3.90;99.90;;;;;;5055069;28;20060;-62
2023/01/23 09:16:46;;;;;;;41.58;21.75;;;3.90;99.90;;;;;;5062824;28;20054;-61
2023/01/23 09:19:11;;;;;;;41.80;22.25;;;3.90;99.90;;;;;;5062031;28;20508;-62
2023/01/23 09:21:37;;;;;;;38.38;20.67;;;3.90;99.90;;;;;;5055468;28;20029;-59
2023/01/23 09:24:03;;;;;;;38.17;22.67;;;4.00;99.90;;;;;;5059469;28;20032;-62
2023/01/23 09:26:28;;;;;;;40.97;21.70;;;4.00;99.90;;;;;;5059345;28;20025;-63
2023/01/23 09:28:54;;;;;;;39.45;22.15;;;4.00;99.90;;;;;;5062816;28;20066;-59
2023/01/23 09:31:19;;;;;;;39.45;21.88;;;4.10;99.90;;;;;;5062156;28;20024;-61
2023/01/23 09:33:47;;;;;;;37.67;21.40;;;4.00;99.90;;;;;;5059590;28;20403;-63
2023/01/23 09:36:13;;;;;;;41.30;22.80;;;4.10;99.90;;;;;;5054370;28;20035;-62
2023/01/23 09:38:38;;;;;;;41.70;21.90;;;4.20;99.90;;;;;;5063155;28;20032;-61
2023/01/23 09:41:26;;;;;;;41.28;21.77;;;4.30;99.90;;;;;;5057303;28;20037;-62
2023/01/23 09:44:06;;;;;;;40.80;22.73;;;4.20;99.90;;;;;;5048828;28;20508;-62
2023/01/23 09:46:43;;;;;;;35.92;20.63;;;4.30;99.90;;;;;;5060857;28;21371;-62
2023/01/23 09:49:43;;;;;;;38.50;21.95;;;4.30;99.90;;;;;;5061206;28;20143;-62
2023/01/23 09:52:15;;;;;;;35.80;20.17;;;4.40;99.90;;;;;;5067057;28;20031;-62
2023/01/23 09:54:49;;;;;;;36.08;19.92;;;4.50;99.90;;;;;;5059934;28;20051;-60
2023/01/23 09:57:32;;;;;;;30.15;19.10;;;4.30;99.90;;;;;;5060779;28;20116;-60
2023/01/23 10:00:09;;;;;;;25.15;15.05;;;4.30;99.90;;;;;;5062579;28;20392;-62
2023/01/23 10:02:35;;;;;;;32.10;19.48;;;4.30;99.90;;;;;;5052523;28;20032;-60
2023/01/23 10:05:03;;;;;;;28.85;18.15;;;4.40;99.90;;;;;;5063165;28;20434;-62
2023/01/23 10:08:04;;;;;;;30.80;17.77;;;4.50;96.80;;;;;;5063186;28;20040;-58
2023/01/23 10:10:57;;;;;;;27.85;17.17;;;4.50;99.90;;;;;;5049240;28;20072;-59
2023/01/23 10:14:01;;;;;;;28.73;16.88;;;4.10;99.50;;;;;;5059074;28;20488;-63
2023/01/23 10:16:59;;;;;;;32.47;17.15;;;4.10;95.80;;;;;;5062962;28;20040;-61
2023/01/23 10:20:12;;;;;;;28.98;17.70;;;4.00;99.90;;;;;;5062673;28;20032;-60
2023/01/23 10:22:50;;;;;;;28.00;17.05;;;4.30;99.90;;;;;;5062307;28;20033;-59
2023/01/23 10:25:20;;;;;;;26.33;16.10;;;4.40;89.40;;;;;;5052198;28;20053;-62
2023/01/23 10:27:48;;;;;;;29.50;16.80;;;4.40;48.30;;;;;;5057399;28;20056;-61
2023/01/23 10:30:23;;;;;;;25.35;15.52;;;4.40;42.90;;;;;;5057293;28;20037;-62
2023/01/23 10:32:59;;;;;;;24.80;15.15;;;4.50;22.00;;;;;;5064457;28;20041;-62
2023/01/23 10:35:52;;;;;;;24.45;15.60;;;4.50;31.50;;;;;;5059329;28;20041;-61
2023/01/23 10:38:36;;;;;;;24.63;15.10;;;4.70;8.10;;;;;;5060191;28;20033;-58
2023/01/23 10:41:13;;;;;;;24.02;14.90;;;4.50;1.40;;;;;;5064708;28;20059;-61
2023/01/23 10:43:39;;;;;;;19.95;12.52;;;4.50;5.70;;;;;;5063489;28;20041;-62
2023/01/23 10:46:39;;;;;;;20.52;13.20;;;4.50;1.00;;;;;;5060111;28;20570;-60
2023/01/23 10:49:06;;;;;;;18.05;11.85;;;4.50;1.00;;;;;;5065889;28;20040;-61
2023/01/23 10:51:46;;;;;;;22.33;13.35;;;4.60;1.00;;;;;;5068952;28;20027;-62
2023/01/23 10:54:19;;;;;;;17.77;12.40;;;4.40;1.00;;;;;;5067228;28;20119;-62
2023/01/23 10:57:17;;;;;;;20.33;12.57;;;4.40;1.00;;;;;;5064602;28;20040;-61
2023/01/23 10:59:53;;;;;;;21.48;13.55;;;4.20;1.00;;;;;;5067723;28;20141;-62
2023/01/23 11:02:33;;;;;;;21.27;13.77;;;4.40;1.00;;;;;;5059464;28;20075;-59
2023/01/23 11:05:02;;;;;;;18.50;11.63;;;4.50;1.00;;;;;;5050397;28;20676;-62
2023/01/23 11:07:35;;;;;;;20.88;12.90;;;4.30;1.00;;;;;;5059593;28;20056;-62
2023/01/23 11:10:20;;;;;;;21.80;13.50;;;4.20;1.00;;;;;;5069721;28;20071;-62
2023/01/23 11:12:50;;;;;;;19.73;12.98;;;4.30;1.00;;;;;;5059224;28;20041;-62
2023/01/23 11:15:21;;;;;;;20.50;12.80;;;4.40;1.00;;;;;;5063513;28;20039;-60
2023/01/23 11:17:47;;;;;;;20.42;13.05;;;4.40;1.00;;;;;;5062854;28;20448;-59
2023/01/23 11:20:29;;;;;;;20.92;12.80;;;4.50;1.00;;;;;;5050665;28;20123;-61
2023/01/23 11:23:24;;;;;;;20.92;12.43;;;4.50;1.00;;;;;;5061332;28;20135;-62
2023/01/23 11:25:52;;;;;;;19.65;12.82;;;4.30;1.00;;;;;;5059132;28;20032;-61
2023/01/23 11:28:34;;;;;;;20.65;13.68;;;4.40;1.00;;;;;;5063762;28;20039;-59
2023/01/23 11:31:11;;;;;;;21.13;13.55;;;4.60;1.00;;;;;;5064144;28;20035;-61
2023/01/23 11:34:00;;;;;;;20.48;12.88;;;4.80;1.00;;;;;;5057759;28;20036;-62
2023/01/23 11:36:55;;;;;;;19.77;13.65;;;4.80;1.00;;;;;;5053993;28;20560;-59
2023/01/23 11:39:45;;;;;;;21.02;12.70;;;4.80;1.00;;;;;;5058842;28;20523;-58
2023/01/23 11:42:12;;;;;;;21.40;12.55;;;4.60;1.00;;;;;;5052108;28;20515;-61
2023/01/23 11:44:39;;;;;;;20.48;12.75;;;4.70;1.00;;;;;;5068388;28;20039;-63
2023/01/23 11:47:35;;;;;;;18.60;12.32;;;4.80;1.00;;;;;;5057134;28;20488;-62
2023/01/23 11:50:17;;;;;;;20.17;12.57;;;4.80;1.00;;;;;;5062362;28;20496;-62
2023/01/23 11:53:01;;;;;;;18.83;12.63;;;4.70;1.00;;;;;;5057176;28;20045;-62
2023/01/23 11:55:42;;;;;;;19.15;12.05;;;4.80;1.00;;;;;;5057910;28;20426;-63
2023/01/23 11:58:20;;;;;;;20.00;11.82;;;4.90;1.00;;;;;;5063594;28;20101;-63
2023/01/23 12:01:00;;;;;;;16.13;11.00;;;4.80;1.00;;;;;;5065498;28;20036;-62
2023/01/23 12:03:51;;;;;;;18.05;11.45;;;4.80;1.00;;;;;;5062140;28;20040;-63
2023/01/23 12:06:34;;;;;;;16.02;11.13;;;4.70;1.00;;;;;;5067225;28;20027;-62
2023/01/23 12:09:16;;;;;;;;;;;4.70;1.00;;;;;;5054661;28;20063;-60
2023/01/23 12:12:18;;;;;;;17.42;10.55;;;4.60;1.00;;;;;;5064377;28;19912;-61
2023/01/23 12:15:02;;;;;;;18.35;10.82;;;4.40;1.00;;;;;;5060749;28;20492;-61
2023/01/23 12:17:58;;;;;;;17.17;11.23;;;4.30;1.00;;;;;;5061709;28;20451;-61
2023/01/23 12:20:40;;;;;;;15.93;10.70;;;3.80;1.00;;;;;;5062597;28;20492;-62
2023/01/23 12:23:32;;;;;;;16.42;11.43;;;4.50;1.00;;;;;;5066282;28;20036;-60
2023/01/23 12:26:21;;;;;;;15.45;10.27;;;4.50;1.00;;;;;;5071670;28;20041;-63
2023/01/23 12:29:14;;;;;;;16.15;10.50;;;4.70;1.00;;;;;;5062481;28;20028;-61
2023/01/23 12:32:01;;;;;;;15.40;9.55;;;4.70;1.00;;;;;;5061294;28;20032;-62
2023/01/23 12:34:49;;;;;;;15.23;9.45;;;4.70;1.00;;;;;;5063612;28;20036;-62
2023/01/23 12:37:50;;;;;;;17.95;10.40;;;4.30;1.00;;;;;;5066964;28;20035;-58
2023/01/23 12:40:38;;;;;;;12.55;9.20;;;4.40;1.00;;;;;;5047633;28;20511;-62
2023/01/23 12:43:34;;;;;;;14.07;9.35;;;4.50;1.00;;;;;;5066263;28;20037;-62
2023/01/23 12:46:16;;;;;;;11.90;7.78;;;4.50;1.00;;;;;;5057088;28;20036;-61
2023/01/23 12:48:54;;;;;;;10.57;7.25;;;4.10;1.00;;;;;;5058115;28;20061;-62
2023/01/23 12:51:25;;;;;;;10.27;7.45;;;4.30;1.00;;;;;;5059335;28;20020;-62
2023/01/23 12:53:55;;;;;;;10.05;7.13;;;4.40;1.00;;;;;;5060880;28;20487;-61
2023/01/23 12:56:34;;;;;;;9.43;6.43;;;4.40;1.00;;;;;;5057520;28;20467;-59
2023/01/23 12:59:14;;;;;;;10.02;6.78;;;4.40;1.00;;;;;;5052942;28;20040;-59
2023/01/23 13:01:45;;;;;;;11.25;7.72;;;4.30;1.00;;;;;;5055973;28;20556;-61